sensor_id;sensor_type;location;lat;lon;timestamp;P1;durP1;ratioP1;P2;durP2;ratioP2
74959;SDS011;63518;49.572;1.106;2023-03-05T00:01:14;7.38;;;2.72;;
74959;SDS011;63518;49.572;1.106;2023-03-05T00:03:44;11.05;;;3.85;;
74959;SDS011;63518;49.572;1.106;2023-03-05T00:06:12;8.43;;;3.17;;
74959;SDS011;63518;49.572;1.106;2023-03-05T00:08:40;9.75;;;2.95;;
74959;SDS011;63518;49.572;1.106;2023-03-05T00:11:08;9.50;;;3.40;;
74959;SDS011;63518;49.572;1.106;2023-03-05T00:13:37;13.15;;;4.10;;
74959;SDS011;63518;49.572;1.106;2023-03-05T00:16:06;13.90;;;5.38;;
74959;SDS011;63518;49.572;1.106;2023-03-05T00:18:36;7.95;;;2.63;;
74959;SDS011;63518;49.572;1.106;2023-03-05T00:21:04;10.75;;;3.58;;
74959;SDS011;63518;49.572;1.106;2023-03-05T00:23:43;7.88;;;2.78;;
74959;SDS011;63518;49.572;1.106;2023-03-05T00:26:10;11.57;;;3.45;;
74959;SDS011;63518;49.572;1.106;2023-03-05T00:28:37;10.25;;;2.78;;
74959;SDS011;63518;49.572;1.106;2023-03-05T00:31:04;10.18;;;3.22;;
74959;SDS011;63518;49.572;1.106;2023-03-05T00:33:32;9.48;;;3.72;;
74959;SDS011;63518;49.572;1.106;2023-03-05T00:36:03;10.10;;;3.10;;
74959;SDS011;63518;49.572;1.106;2023-03-05T00:38:32;13.15;;;5.10;;
74959;SDS011;63518;49.572;1.106;2023-03-05T00:41:01;10.52;;;3.83;;
74959;SDS011;63518;49.572;1.106;2023-03-05T00:43:29;10.40;;;3.28;;
74959;SDS011;63518;49.572;1.106;2023-03-05T00:45:56;14.60;;;5.30;;
74959;SDS011;63518;49.572;1.106;2023-03-05T00:48:24;12.30;;;4.03;;
74959;SDS011;63518;49.572;1.106;2023-03-05T00:50:52;10.07;;;3.47;;
74959;SDS011;63518;49.572;1.106;2023-03-05T00:53:20;9.93;;;2.80;;
74959;SDS011;63518;49.572;1.106;2023-03-05T00:55:49;8.13;;;2.65;;
74959;SDS011;63518;49.572;1.106;2023-03-05T00:58:17;11.27;;;3.22;;
74959;SDS011;63518;49.572;1.106;2023-03-05T01:00:44;6.50;;;2.67;;
74959;SDS011;63518;49.572;1.106;2023-03-05T01:03:12;9.13;;;3.20;;
74959;SDS011;63518;49.572;1.106;2023-03-05T01:05:41;8.57;;;2.88;;
74959;SDS011;63518;49.572;1.106;2023-03-05T01:08:09;13.30;;;5.47;;
74959;SDS011;63518;49.572;1.106;2023-03-05T01:10:41;10.70;;;3.60;;
74959;SDS011;63518;49.572;1.106;2023-03-05T01:13:09;9.70;;;3.15;;
74959;SDS011;63518;49.572;1.106;2023-03-05T01:15:37;8.50;;;3.22;;
74959;SDS011;63518;49.572;1.106;2023-03-05T01:18:06;8.25;;;2.42;;
74959;SDS011;63518;49.572;1.106;2023-03-05T01:20:37;9.75;;;2.72;;
74959;SDS011;63518;49.572;1.106;2023-03-05T01:23:05;6.65;;;2.78;;
74959;SDS011;63518;49.572;1.106;2023-03-05T01:25:33;7.45;;;2.95;;
74959;SDS011;63518;49.572;1.106;2023-03-05T01:28:04;6.38;;;2.22;;
74959;SDS011;63518;49.572;1.106;2023-03-05T01:30:33;7.40;;;2.67;;
74959;SDS011;63518;49.572;1.106;2023-03-05T01:33:01;11.43;;;4.95;;
74959;SDS011;63518;49.572;1.106;2023-03-05T01:35:29;8.07;;;2.80;;
74959;SDS011;63518;49.572;1.106;2023-03-05T01:37:58;10.27;;;3.35;;
74959;SDS011;63518;49.572;1.106;2023-03-05T01:40:26;8.32;;;2.78;;
74959;SDS011;63518;49.572;1.106;2023-03-05T01:45:32;6.60;;;2.15;;
74959;SDS011;63518;49.572;1.106;2023-03-05T01:48:03;8.23;;;3.13;;
74959;SDS011;63518;49.572;1.106;2023-03-05T01:50:32;8.70;;;3.35;;
74959;SDS011;63518;49.572;1.106;2023-03-05T01:53:01;9.68;;;2.67;;
74959;SDS011;63518;49.572;1.106;2023-03-05T01:55:34;7.90;;;2.40;;
74959;SDS011;63518;49.572;1.106;2023-03-05T01:58:05;9.25;;;3.17;;
74959;SDS011;63518;49.572;1.106;2023-03-05T02:00:47;8.63;;;2.65;;
74959;SDS011;63518;49.572;1.106;2023-03-05T02:03:19;9.77;;;3.10;;
74959;SDS011;63518;49.572;1.106;2023-03-05T02:05:51;10.23;;;2.88;;
74959;SDS011;63518;49.572;1.106;2023-03-05T02:08:21;9.35;;;3.15;;
74959;SDS011;63518;49.572;1.106;2023-03-05T02:10:52;9.05;;;3.17;;
74959;SDS011;63518;49.572;1.106;2023-03-05T02:13:26;7.05;;;2.55;;
74959;SDS011;63518;49.572;1.106;2023-03-05T02:15:58;9.77;;;2.95;;
74959;SDS011;63518;49.572;1.106;2023-03-05T02:18:28;7.82;;;2.33;;
74959;SDS011;63518;49.572;1.106;2023-03-05T02:23:26;8.88;;;3.08;;
74959;SDS011;63518;49.572;1.106;2023-03-05T02:25:57;8.73;;;3.60;;
74959;SDS011;63518;49.572;1.106;2023-03-05T02:28:33;11.60;;;2.63;;
74959;SDS011;63518;49.572;1.106;2023-03-05T02:31:12;9.07;;;3.15;;
74959;SDS011;63518;49.572;1.106;2023-03-05T02:33:43;8.70;;;3.15;;
74959;SDS011;63518;49.572;1.106;2023-03-05T02:36:12;8.10;;;3.03;;
74959;SDS011;63518;49.572;1.106;2023-03-05T02:38:40;7.97;;;2.78;;
74959;SDS011;63518;49.572;1.106;2023-03-05T02:41:09;7.72;;;2.67;;
74959;SDS011;63518;49.572;1.106;2023-03-05T02:43:38;9.13;;;2.53;;
74959;SDS011;63518;49.572;1.106;2023-03-05T02:46:07;11.30;;;3.60;;
74959;SDS011;63518;49.572;1.106;2023-03-05T02:48:36;8.65;;;3.42;;
74959;SDS011;63518;49.572;1.106;2023-03-05T02:51:04;9.25;;;3.65;;
74959;SDS011;63518;49.572;1.106;2023-03-05T02:53:34;11.10;;;3.13;;
74959;SDS011;63518;49.572;1.106;2023-03-05T02:56:02;10.32;;;3.28;;
74959;SDS011;63518;49.572;1.106;2023-03-05T02:58:31;10.93;;;3.95;;
74959;SDS011;63518;49.572;1.106;2023-03-05T03:00:58;12.13;;;3.95;;
74959;SDS011;63518;49.572;1.106;2023-03-05T03:03:28;10.82;;;3.75;;
74959;SDS011;63518;49.572;1.106;2023-03-05T03:05:57;11.98;;;4.32;;
74959;SDS011;63518;49.572;1.106;2023-03-05T03:08:25;12.35;;;4.47;;
74959;SDS011;63518;49.572;1.106;2023-03-05T03:10:55;10.98;;;3.03;;
74959;SDS011;63518;49.572;1.106;2023-03-05T03:13:23;9.55;;;3.70;;
74959;SDS011;63518;49.572;1.106;2023-03-05T03:16:09;9.30;;;3.58;;
74959;SDS011;63518;49.572;1.106;2023-03-05T03:18:40;11.30;;;4.03;;
74959;SDS011;63518;49.572;1.106;2023-03-05T03:21:15;12.95;;;3.83;;
74959;SDS011;63518;49.572;1.106;2023-03-05T03:23:50;11.77;;;3.33;;
74959;SDS011;63518;49.572;1.106;2023-03-05T03:28:47;7.43;;;2.80;;
74959;SDS011;63518;49.572;1.106;2023-03-05T03:31:18;9.10;;;3.45;;
74959;SDS011;63518;49.572;1.106;2023-03-05T03:33:46;10.88;;;3.60;;
74959;SDS011;63518;49.572;1.106;2023-03-05T03:36:14;8.48;;;3.30;;
74959;SDS011;63518;49.572;1.106;2023-03-05T03:38:42;13.65;;;3.58;;
74959;SDS011;63518;49.572;1.106;2023-03-05T03:41:10;10.48;;;3.72;;
74959;SDS011;63518;49.572;1.106;2023-03-05T03:43:38;8.82;;;3.25;;
74959;SDS011;63518;49.572;1.106;2023-03-05T03:46:07;9.30;;;2.80;;
74959;SDS011;63518;49.572;1.106;2023-03-05T03:48:35;10.13;;;3.58;;
74959;SDS011;63518;49.572;1.106;2023-03-05T03:51:04;11.48;;;3.92;;
74959;SDS011;63518;49.572;1.106;2023-03-05T03:53:33;10.00;;;4.13;;
74959;SDS011;63518;49.572;1.106;2023-03-05T03:56:02;12.27;;;4.80;;
74959;SDS011;63518;49.572;1.106;2023-03-05T03:58:31;16.60;;;6.38;;
74959;SDS011;63518;49.572;1.106;2023-03-05T04:03:28;10.50;;;3.50;;
74959;SDS011;63518;49.572;1.106;2023-03-05T04:05:57;17.02;;;4.43;;
74959;SDS011;63518;49.572;1.106;2023-03-05T04:08:28;10.88;;;3.65;;
74959;SDS011;63518;49.572;1.106;2023-03-05T04:10:59;12.23;;;4.60;;
74959;SDS011;63518;49.572;1.106;2023-03-05T04:13:29;12.80;;;3.88;;
74959;SDS011;63518;49.572;1.106;2023-03-05T04:15:57;8.52;;;3.35;;
74959;SDS011;63518;49.572;1.106;2023-03-05T04:18:27;11.35;;;4.03;;
74959;SDS011;63518;49.572;1.106;2023-03-05T04:20:58;12.90;;;4.47;;
74959;SDS011;63518;49.572;1.106;2023-03-05T04:23:27;11.40;;;3.53;;
74959;SDS011;63518;49.572;1.106;2023-03-05T04:26:01;11.77;;;3.88;;
74959;SDS011;63518;49.572;1.106;2023-03-05T04:28:31;9.48;;;3.08;;
74959;SDS011;63518;49.572;1.106;2023-03-05T04:31:01;10.73;;;4.18;;
74959;SDS011;63518;49.572;1.106;2023-03-05T04:33:30;12.15;;;3.90;;
74959;SDS011;63518;49.572;1.106;2023-03-05T04:36:00;8.55;;;3.45;;
74959;SDS011;63518;49.572;1.106;2023-03-05T04:38:32;8.15;;;3.25;;
74959;SDS011;63518;49.572;1.106;2023-03-05T04:41:01;11.80;;;3.95;;
74959;SDS011;63518;49.572;1.106;2023-03-05T04:43:30;10.30;;;3.60;;
74959;SDS011;63518;49.572;1.106;2023-03-05T04:45:58;10.10;;;3.83;;
74959;SDS011;63518;49.572;1.106;2023-03-05T04:48:26;11.48;;;3.75;;
74959;SDS011;63518;49.572;1.106;2023-03-05T04:50:53;10.32;;;3.92;;
74959;SDS011;63518;49.572;1.106;2023-03-05T04:53:22;10.73;;;3.70;;
74959;SDS011;63518;49.572;1.106;2023-03-05T04:55:53;10.75;;;3.22;;
74959;SDS011;63518;49.572;1.106;2023-03-05T04:58:22;8.60;;;3.45;;
74959;SDS011;63518;49.572;1.106;2023-03-05T05:00:51;10.80;;;3.85;;
74959;SDS011;63518;49.572;1.106;2023-03-05T05:03:19;9.95;;;3.55;;
74959;SDS011;63518;49.572;1.106;2023-03-05T05:05:52;12.25;;;3.90;;
74959;SDS011;63518;49.572;1.106;2023-03-05T05:08:22;9.57;;;3.92;;
74959;SDS011;63518;49.572;1.106;2023-03-05T05:10:58;9.70;;;3.22;;
74959;SDS011;63518;49.572;1.106;2023-03-05T05:13:30;9.50;;;3.05;;
74959;SDS011;63518;49.572;1.106;2023-03-05T05:15:59;9.43;;;3.63;;
74959;SDS011;63518;49.572;1.106;2023-03-05T05:18:27;9.57;;;3.80;;
74959;SDS011;63518;49.572;1.106;2023-03-05T05:20:56;11.98;;;3.17;;
74959;SDS011;63518;49.572;1.106;2023-03-05T05:23:26;9.82;;;3.78;;
74959;SDS011;63518;49.572;1.106;2023-03-05T05:25:58;10.25;;;3.88;;
74959;SDS011;63518;49.572;1.106;2023-03-05T05:28:28;9.60;;;3.33;;
74959;SDS011;63518;49.572;1.106;2023-03-05T05:30:57;8.90;;;3.65;;
74959;SDS011;63518;49.572;1.106;2023-03-05T05:33:25;11.73;;;3.45;;
74959;SDS011;63518;49.572;1.106;2023-03-05T05:35:55;9.65;;;3.60;;
74959;SDS011;63518;49.572;1.106;2023-03-05T05:38:24;10.02;;;3.58;;
74959;SDS011;63518;49.572;1.106;2023-03-05T05:40:52;12.15;;;3.80;;
74959;SDS011;63518;49.572;1.106;2023-03-05T05:43:19;10.13;;;3.15;;
74959;SDS011;63518;49.572;1.106;2023-03-05T05:45:47;8.95;;;3.72;;
74959;SDS011;63518;49.572;1.106;2023-03-05T05:48:16;8.98;;;3.38;;
74959;SDS011;63518;49.572;1.106;2023-03-05T05:50:44;8.23;;;2.83;;
74959;SDS011;63518;49.572;1.106;2023-03-05T05:53:21;9.57;;;3.90;;
74959;SDS011;63518;49.572;1.106;2023-03-05T05:55:52;9.50;;;3.25;;
74959;SDS011;63518;49.572;1.106;2023-03-05T05:58:21;10.02;;;3.53;;
74959;SDS011;63518;49.572;1.106;2023-03-05T06:00:51;12.60;;;4.10;;
74959;SDS011;63518;49.572;1.106;2023-03-05T06:03:22;13.02;;;3.80;;
74959;SDS011;63518;49.572;1.106;2023-03-05T06:05:51;9.63;;;3.53;;
74959;SDS011;63518;49.572;1.106;2023-03-05T06:08:20;12.45;;;3.40;;
74959;SDS011;63518;49.572;1.106;2023-03-05T06:10:57;10.82;;;3.53;;
74959;SDS011;63518;49.572;1.106;2023-03-05T06:13:26;10.25;;;3.78;;
74959;SDS011;63518;49.572;1.106;2023-03-05T06:15:56;12.15;;;3.63;;
74959;SDS011;63518;49.572;1.106;2023-03-05T06:18:29;11.70;;;3.90;;
74959;SDS011;63518;49.572;1.106;2023-03-05T06:21:00;12.05;;;3.88;;
74959;SDS011;63518;49.572;1.106;2023-03-05T06:23:30;9.25;;;3.38;;
74959;SDS011;63518;49.572;1.106;2023-03-05T06:25:59;10.95;;;3.60;;
74959;SDS011;63518;49.572;1.106;2023-03-05T06:28:29;13.07;;;3.78;;
74959;SDS011;63518;49.572;1.106;2023-03-05T06:31:10;9.73;;;3.15;;
74959;SDS011;63518;49.572;1.106;2023-03-05T06:36:09;12.70;;;3.63;;
74959;SDS011;63518;49.572;1.106;2023-03-05T06:38:40;9.07;;;2.88;;
74959;SDS011;63518;49.572;1.106;2023-03-05T06:41:10;10.43;;;3.25;;
74959;SDS011;63518;49.572;1.106;2023-03-05T06:43:41;11.05;;;3.92;;
74959;SDS011;63518;49.572;1.106;2023-03-05T06:46:12;12.00;;;3.15;;
74959;SDS011;63518;49.572;1.106;2023-03-05T06:51:24;7.10;;;2.80;;
74959;SDS011;63518;49.572;1.106;2023-03-05T06:53:54;11.18;;;3.70;;
74959;SDS011;63518;49.572;1.106;2023-03-05T06:56:26;11.13;;;3.97;;
74959;SDS011;63518;49.572;1.106;2023-03-05T06:58:55;9.27;;;3.47;;
74959;SDS011;63518;49.572;1.106;2023-03-05T07:01:24;11.00;;;3.50;;
74959;SDS011;63518;49.572;1.106;2023-03-05T07:03:53;7.97;;;2.75;;
74959;SDS011;63518;49.572;1.106;2023-03-05T07:06:22;11.57;;;3.47;;
74959;SDS011;63518;49.572;1.106;2023-03-05T07:08:53;9.00;;;3.20;;
74959;SDS011;63518;49.572;1.106;2023-03-05T07:16:18;9.07;;;3.05;;
74959;SDS011;63518;49.572;1.106;2023-03-05T07:18:50;10.75;;;3.22;;
74959;SDS011;63518;49.572;1.106;2023-03-05T07:21:20;15.30;;;5.67;;
74959;SDS011;63518;49.572;1.106;2023-03-05T07:23:55;13.88;;;4.75;;
74959;SDS011;63518;49.572;1.106;2023-03-05T07:26:26;11.85;;;3.45;;
74959;SDS011;63518;49.572;1.106;2023-03-05T07:28:55;9.57;;;3.17;;
74959;SDS011;63518;49.572;1.106;2023-03-05T07:31:25;12.18;;;4.07;;
74959;SDS011;63518;49.572;1.106;2023-03-05T07:33:59;13.18;;;4.38;;
74959;SDS011;63518;49.572;1.106;2023-03-05T07:36:29;10.75;;;3.33;;
74959;SDS011;63518;49.572;1.106;2023-03-05T07:38:58;9.98;;;2.97;;
74959;SDS011;63518;49.572;1.106;2023-03-05T07:41:27;8.80;;;3.28;;
74959;SDS011;63518;49.572;1.106;2023-03-05T07:46:24;7.50;;;2.30;;
74959;SDS011;63518;49.572;1.106;2023-03-05T07:48:55;7.78;;;3.15;;
74959;SDS011;63518;49.572;1.106;2023-03-05T07:51:23;10.13;;;3.38;;
74959;SDS011;63518;49.572;1.106;2023-03-05T07:53:56;8.70;;;3.33;;
74959;SDS011;63518;49.572;1.106;2023-03-05T07:56:32;11.85;;;4.10;;
74959;SDS011;63518;49.572;1.106;2023-03-05T07:59:07;10.05;;;3.17;;
74959;SDS011;63518;49.572;1.106;2023-03-05T08:01:38;12.23;;;3.95;;
74959;SDS011;63518;49.572;1.106;2023-03-05T08:04:07;10.23;;;3.60;;
74959;SDS011;63518;49.572;1.106;2023-03-05T08:06:38;10.38;;;3.15;;
74959;SDS011;63518;49.572;1.106;2023-03-05T08:09:07;10.25;;;3.72;;
74959;SDS011;63518;49.572;1.106;2023-03-05T08:11:37;10.77;;;3.22;;
74959;SDS011;63518;49.572;1.106;2023-03-05T08:14:07;11.45;;;3.65;;
74959;SDS011;63518;49.572;1.106;2023-03-05T08:16:37;9.73;;;3.33;;
74959;SDS011;63518;49.572;1.106;2023-03-05T08:19:08;11.15;;;3.00;;
74959;SDS011;63518;49.572;1.106;2023-03-05T08:21:39;9.15;;;3.05;;
74959;SDS011;63518;49.572;1.106;2023-03-05T08:24:08;9.75;;;3.13;;
74959;SDS011;63518;49.572;1.106;2023-03-05T08:26:41;11.48;;;3.63;;
74959;SDS011;63518;49.572;1.106;2023-03-05T08:29:10;10.27;;;3.75;;
74959;SDS011;63518;49.572;1.106;2023-03-05T08:31:39;9.65;;;3.88;;
74959;SDS011;63518;49.572;1.106;2023-03-05T08:34:11;9.00;;;3.20;;
74959;SDS011;63518;49.572;1.106;2023-03-05T08:36:41;9.57;;;3.05;;
74959;SDS011;63518;49.572;1.106;2023-03-05T08:39:09;9.90;;;3.10;;
74959;SDS011;63518;49.572;1.106;2023-03-05T08:41:38;8.20;;;2.22;;
74959;SDS011;63518;49.572;1.106;2023-03-05T08:44:07;9.88;;;2.67;;
74959;SDS011;63518;49.572;1.106;2023-03-05T08:46:37;7.03;;;2.42;;
74959;SDS011;63518;49.572;1.106;2023-03-05T08:49:08;7.97;;;2.78;;
74959;SDS011;63518;49.572;1.106;2023-03-05T08:51:37;8.90;;;2.88;;
74959;SDS011;63518;49.572;1.106;2023-03-05T08:54:06;5.95;;;2.17;;
74959;SDS011;63518;49.572;1.106;2023-03-05T08:56:36;5.88;;;2.05;;
74959;SDS011;63518;49.572;1.106;2023-03-05T08:59:05;6.00;;;2.10;;
74959;SDS011;63518;49.572;1.106;2023-03-05T09:01:33;7.35;;;2.45;;
74959;SDS011;63518;49.572;1.106;2023-03-05T09:04:02;9.15;;;2.50;;
74959;SDS011;63518;49.572;1.106;2023-03-05T09:06:31;8.57;;;2.45;;
74959;SDS011;63518;49.572;1.106;2023-03-05T09:09:02;7.50;;;2.42;;
74959;SDS011;63518;49.572;1.106;2023-03-05T09:11:30;6.30;;;1.73;;
74959;SDS011;63518;49.572;1.106;2023-03-05T09:14:04;5.63;;;1.90;;
74959;SDS011;63518;49.572;1.106;2023-03-05T09:16:33;5.63;;;1.58;;
74959;SDS011;63518;49.572;1.106;2023-03-05T09:19:03;7.05;;;2.20;;
74959;SDS011;63518;49.572;1.106;2023-03-05T09:21:31;6.43;;;1.88;;
74959;SDS011;63518;49.572;1.106;2023-03-05T09:23:59;6.35;;;2.42;;
74959;SDS011;63518;49.572;1.106;2023-03-05T09:26:28;6.15;;;2.00;;
74959;SDS011;63518;49.572;1.106;2023-03-05T09:28:56;5.93;;;2.15;;
74959;SDS011;63518;49.572;1.106;2023-03-05T09:31:24;6.63;;;2.00;;
74959;SDS011;63518;49.572;1.106;2023-03-05T09:33:53;5.82;;;2.00;;
74959;SDS011;63518;49.572;1.106;2023-03-05T09:36:23;8.52;;;2.10;;
74959;SDS011;63518;49.572;1.106;2023-03-05T09:38:54;7.57;;;2.42;;
74959;SDS011;63518;49.572;1.106;2023-03-05T09:44:46;7.70;;;2.05;;
74959;SDS011;63518;49.572;1.106;2023-03-05T09:50:39;6.55;;;2.22;;
74959;SDS011;63518;49.572;1.106;2023-03-05T09:55:50;5.80;;;1.83;;
74959;SDS011;63518;49.572;1.106;2023-03-05T09:58:32;9.55;;;2.35;;
74959;SDS011;63518;49.572;1.106;2023-03-05T10:01:05;7.13;;;2.30;;
74959;SDS011;63518;49.572;1.106;2023-03-05T10:06:25;4.97;;;1.60;;
74959;SDS011;63518;49.572;1.106;2023-03-05T10:09:06;6.88;;;2.15;;
74959;SDS011;63518;49.572;1.106;2023-03-05T10:11:54;7.57;;;2.05;;
74959;SDS011;63518;49.572;1.106;2023-03-05T10:14:30;6.53;;;2.45;;
74959;SDS011;63518;49.572;1.106;2023-03-05T10:17:03;6.90;;;2.03;;
74959;SDS011;63518;49.572;1.106;2023-03-05T10:22:58;13.60;;;5.70;;
74959;SDS011;63518;49.572;1.106;2023-03-05T10:28:21;6.38;;;2.45;;
74959;SDS011;63518;49.572;1.106;2023-03-05T10:34:11;9.55;;;3.00;;
74959;SDS011;63518;49.572;1.106;2023-03-05T10:43:04;7.10;;;2.03;;
74959;SDS011;63518;49.572;1.106;2023-03-05T10:45:46;6.70;;;2.35;;
74959;SDS011;63518;49.572;1.106;2023-03-05T10:48:21;9.15;;;2.85;;
74959;SDS011;63518;49.572;1.106;2023-03-05T10:51:01;8.38;;;2.35;;
74959;SDS011;63518;49.572;1.106;2023-03-05T10:56:18;7.85;;;2.78;;
74959;SDS011;63518;49.572;1.106;2023-03-05T10:58:51;9.70;;;3.40;;
74959;SDS011;63518;49.572;1.106;2023-03-05T11:03:51;8.93;;;3.17;;
74959;SDS011;63518;49.572;1.106;2023-03-05T11:06:36;6.82;;;2.63;;
74959;SDS011;63518;49.572;1.106;2023-03-05T11:09:22;8.38;;;3.20;;
74959;SDS011;63518;49.572;1.106;2023-03-05T11:17:39;6.93;;;2.38;;
74959;SDS011;63518;49.572;1.106;2023-03-05T11:23:05;6.57;;;2.40;;
74959;SDS011;63518;49.572;1.106;2023-03-05T11:28:35;7.60;;;2.05;;
74959;SDS011;63518;49.572;1.106;2023-03-05T11:34:01;6.97;;;2.63;;
74959;SDS011;63518;49.572;1.106;2023-03-05T11:39:19;8.02;;;2.78;;
74959;SDS011;63518;49.572;1.106;2023-03-05T11:41:56;9.77;;;3.15;;
74959;SDS011;63518;49.572;1.106;2023-03-05T11:45:09;7.20;;;2.42;;
74959;SDS011;63518;49.572;1.106;2023-03-05T11:50:41;8.93;;;2.92;;
74959;SDS011;63518;49.572;1.106;2023-03-05T11:53:02;8.18;;;2.40;;
74959;SDS011;63518;49.572;1.106;2023-03-05T11:55:36;7.72;;;2.85;;
74959;SDS011;63518;49.572;1.106;2023-03-05T12:00:40;11.02;;;4.00;;
74959;SDS011;63518;49.572;1.106;2023-03-05T12:03:10;7.85;;;2.65;;
74959;SDS011;63518;49.572;1.106;2023-03-05T12:05:41;7.07;;;3.10;;
74959;SDS011;63518;49.572;1.106;2023-03-05T12:10:45;8.60;;;3.42;;
74959;SDS011;63518;49.572;1.106;2023-03-05T12:13:31;6.03;;;2.08;;
74959;SDS011;63518;49.572;1.106;2023-03-05T12:21:38;6.03;;;2.05;;
74959;SDS011;63518;49.572;1.106;2023-03-05T12:35:00;7.93;;;2.63;;
74959;SDS011;63518;49.572;1.106;2023-03-05T12:40:01;5.80;;;2.22;;
74959;SDS011;63518;49.572;1.106;2023-03-05T12:47:45;10.85;;;3.28;;
74959;SDS011;63518;49.572;1.106;2023-03-05T12:53:18;6.70;;;2.17;;
74959;SDS011;63518;49.572;1.106;2023-03-05T12:55:57;10.32;;;3.60;;
74959;SDS011;63518;49.572;1.106;2023-03-05T12:58:39;7.70;;;2.72;;
74959;SDS011;63518;49.572;1.106;2023-03-05T13:03:44;10.82;;;4.60;;
74959;SDS011;63518;49.572;1.106;2023-03-05T13:06:29;9.68;;;4.40;;
74959;SDS011;63518;49.572;1.106;2023-03-05T13:11:47;12.93;;;5.60;;
74959;SDS011;63518;49.572;1.106;2023-03-05T13:14:28;10.73;;;4.55;;
74959;SDS011;63518;49.572;1.106;2023-03-05T13:17:01;15.43;;;5.82;;
74959;SDS011;63518;49.572;1.106;2023-03-05T13:19:49;13.77;;;5.57;;
74959;SDS011;63518;49.572;1.106;2023-03-05T13:22:16;14.55;;;6.20;;
74959;SDS011;63518;49.572;1.106;2023-03-05T13:24:43;16.02;;;5.65;;
74959;SDS011;63518;49.572;1.106;2023-03-05T13:27:23;14.60;;;5.78;;
74959;SDS011;63518;49.572;1.106;2023-03-05T13:29:54;13.30;;;5.90;;
74959;SDS011;63518;49.572;1.106;2023-03-05T13:32:24;14.32;;;5.68;;
74959;SDS011;63518;49.572;1.106;2023-03-05T13:34:54;12.95;;;5.80;;
74959;SDS011;63518;49.572;1.106;2023-03-05T13:37:24;16.00;;;6.68;;
74959;SDS011;63518;49.572;1.106;2023-03-05T13:39:59;17.02;;;6.18;;
74959;SDS011;63518;49.572;1.106;2023-03-05T13:42:33;15.48;;;7.05;;
74959;SDS011;63518;49.572;1.106;2023-03-05T13:47:55;12.20;;;4.97;;
74959;SDS011;63518;49.572;1.106;2023-03-05T13:50:25;19.45;;;6.78;;
74959;SDS011;63518;49.572;1.106;2023-03-05T13:53:15;14.18;;;6.03;;
74959;SDS011;63518;49.572;1.106;2023-03-05T13:55:50;13.50;;;6.00;;
74959;SDS011;63518;49.572;1.106;2023-03-05T14:06:19;15.15;;;5.82;;
74959;SDS011;63518;49.572;1.106;2023-03-05T14:08:51;12.98;;;5.15;;
74959;SDS011;63518;49.572;1.106;2023-03-05T14:11:20;15.80;;;6.53;;
74959;SDS011;63518;49.572;1.106;2023-03-05T14:13:48;15.50;;;5.72;;
74959;SDS011;63518;49.572;1.106;2023-03-05T14:16:28;13.98;;;6.40;;
74959;SDS011;63518;49.572;1.106;2023-03-05T14:19:02;19.98;;;8.90;;
74959;SDS011;63518;49.572;1.106;2023-03-05T14:21:47;20.63;;;9.73;;
74959;SDS011;63518;49.572;1.106;2023-03-05T14:24:20;20.67;;;10.57;;
74959;SDS011;63518;49.572;1.106;2023-03-05T14:26:51;20.83;;;10.38;;
74959;SDS011;63518;49.572;1.106;2023-03-05T14:29:23;20.27;;;9.93;;
74959;SDS011;63518;49.572;1.106;2023-03-05T14:34:39;19.70;;;8.35;;
74959;SDS011;63518;49.572;1.106;2023-03-05T14:37:18;16.70;;;6.95;;
74959;SDS011;63518;49.572;1.106;2023-03-05T14:39:55;17.55;;;7.75;;
74959;SDS011;63518;49.572;1.106;2023-03-05T14:42:30;16.85;;;6.28;;
74959;SDS011;63518;49.572;1.106;2023-03-05T14:45:09;13.23;;;6.03;;
74959;SDS011;63518;49.572;1.106;2023-03-05T14:47:38;18.17;;;7.22;;
74959;SDS011;63518;49.572;1.106;2023-03-05T14:50:07;14.85;;;6.25;;
74959;SDS011;63518;49.572;1.106;2023-03-05T14:52:35;14.50;;;5.50;;
74959;SDS011;63518;49.572;1.106;2023-03-05T14:55:03;16.60;;;6.78;;
74959;SDS011;63518;49.572;1.106;2023-03-05T14:57:31;14.25;;;5.95;;
74959;SDS011;63518;49.572;1.106;2023-03-05T14:59:58;15.48;;;6.78;;
74959;SDS011;63518;49.572;1.106;2023-03-05T15:02:25;21.88;;;9.50;;
74959;SDS011;63518;49.572;1.106;2023-03-05T15:04:52;17.88;;;8.57;;
74959;SDS011;63518;49.572;1.106;2023-03-05T15:07:21;16.00;;;6.80;;
74959;SDS011;63518;49.572;1.106;2023-03-05T15:09:52;16.90;;;6.10;;
74959;SDS011;63518;49.572;1.106;2023-03-05T15:12:20;18.60;;;7.68;;
74959;SDS011;63518;49.572;1.106;2023-03-05T15:14:51;18.30;;;7.70;;
74959;SDS011;63518;49.572;1.106;2023-03-05T15:17:25;14.90;;;7.00;;
74959;SDS011;63518;49.572;1.106;2023-03-05T15:19:59;20.10;;;8.13;;
74959;SDS011;63518;49.572;1.106;2023-03-05T15:22:26;15.77;;;7.47;;
74959;SDS011;63518;49.572;1.106;2023-03-05T15:24:53;16.88;;;6.75;;
74959;SDS011;63518;49.572;1.106;2023-03-05T15:27:20;19.27;;;9.73;;
74959;SDS011;63518;49.572;1.106;2023-03-05T15:29:49;16.40;;;7.53;;
74959;SDS011;63518;49.572;1.106;2023-03-05T15:32:19;15.43;;;6.60;;
74959;SDS011;63518;49.572;1.106;2023-03-05T15:34:46;16.30;;;5.78;;
74959;SDS011;63518;49.572;1.106;2023-03-05T15:37:14;13.55;;;5.85;;
74959;SDS011;63518;49.572;1.106;2023-03-05T15:39:41;22.95;;;10.52;;
74959;SDS011;63518;49.572;1.106;2023-03-05T15:42:08;22.88;;;10.70;;
74959;SDS011;63518;49.572;1.106;2023-03-05T15:44:35;16.63;;;7.93;;
74959;SDS011;63518;49.572;1.106;2023-03-05T15:47:02;16.30;;;7.25;;
74959;SDS011;63518;49.572;1.106;2023-03-05T15:49:29;15.90;;;6.88;;
74959;SDS011;63518;49.572;1.106;2023-03-05T15:51:56;17.55;;;7.53;;
74959;SDS011;63518;49.572;1.106;2023-03-05T15:54:25;18.50;;;7.53;;
74959;SDS011;63518;49.572;1.106;2023-03-05T15:56:53;16.70;;;6.20;;
74959;SDS011;63518;49.572;1.106;2023-03-05T15:59:21;14.20;;;6.53;;
74959;SDS011;63518;49.572;1.106;2023-03-05T16:01:49;15.98;;;6.45;;
74959;SDS011;63518;49.572;1.106;2023-03-05T16:04:17;15.65;;;7.00;;
74959;SDS011;63518;49.572;1.106;2023-03-05T16:06:45;15.43;;;5.88;;
74959;SDS011;63518;49.572;1.106;2023-03-05T16:09:15;16.80;;;7.65;;
74959;SDS011;63518;49.572;1.106;2023-03-05T16:11:43;16.20;;;6.30;;
74959;SDS011;63518;49.572;1.106;2023-03-05T16:14:15;14.88;;;6.32;;
74959;SDS011;63518;49.572;1.106;2023-03-05T16:16:45;17.83;;;8.77;;
74959;SDS011;63518;49.572;1.106;2023-03-05T16:19:13;18.05;;;6.60;;
74959;SDS011;63518;49.572;1.106;2023-03-05T16:21:44;14.10;;;6.28;;
74959;SDS011;63518;49.572;1.106;2023-03-05T16:24:12;17.83;;;7.40;;
74959;SDS011;63518;49.572;1.106;2023-03-05T16:26:40;13.98;;;5.93;;
74959;SDS011;63518;49.572;1.106;2023-03-05T16:29:07;15.25;;;5.60;;
74959;SDS011;63518;49.572;1.106;2023-03-05T16:41:27;13.15;;;4.47;;
74959;SDS011;63518;49.572;1.106;2023-03-05T16:43:55;15.73;;;5.68;;
74959;SDS011;63518;49.572;1.106;2023-03-05T16:46:23;11.45;;;5.50;;
74959;SDS011;63518;49.572;1.106;2023-03-05T16:51:20;9.85;;;3.92;;
74959;SDS011;63518;49.572;1.106;2023-03-05T16:53:48;14.15;;;6.03;;
74959;SDS011;63518;49.572;1.106;2023-03-05T16:56:16;10.80;;;4.80;;
74959;SDS011;63518;49.572;1.106;2023-03-05T16:58:43;12.20;;;4.95;;
74959;SDS011;63518;49.572;1.106;2023-03-05T17:01:13;13.48;;;5.53;;
74959;SDS011;63518;49.572;1.106;2023-03-05T17:03:45;13.48;;;5.32;;
74959;SDS011;63518;49.572;1.106;2023-03-05T17:06:24;14.77;;;5.63;;
74959;SDS011;63518;49.572;1.106;2023-03-05T17:08:54;14.57;;;5.55;;
74959;SDS011;63518;49.572;1.106;2023-03-05T17:11:22;12.75;;;4.90;;
74959;SDS011;63518;49.572;1.106;2023-03-05T17:13:53;14.52;;;5.68;;
74959;SDS011;63518;49.572;1.106;2023-03-05T17:16:22;13.32;;;4.82;;
74959;SDS011;63518;49.572;1.106;2023-03-05T17:18:49;11.68;;;4.30;;
74959;SDS011;63518;49.572;1.106;2023-03-05T17:21:16;12.85;;;4.20;;